Time;durP1;ratioP1;P1;durP2;ratioP2;P2;SDS_P1;SDS_P2;PMS_P1;PMS_P2;Temp;Humidity;BMP_temperature;BMP_pressure;BME280_temperature;BME280_humidity;BME280_pressure;Samples;Min_cycle;Max_cycle;Signal;HPM_P1;HPM_P2
2022/12/26 00:12:18;;;;;;;75.60;55.00;;;;;;;;;;6258147;22;1485710;-69
2022/12/26 00:14:44;;;;;;;68.88;53.53;;;;;;;;;;6307434;22;20337;-69
2022/12/26 00:17:10;;;;;;;76.35;55.10;;;;;;;;;;6307663;22;20322;-71
2022/12/26 00:19:36;;;;;;;68.55;53.05;;;;;;;;;;6307224;22;20010;-71
2022/12/26 00:22:02;;;;;;;72.40;52.83;;;;;;;;;;6307333;22;20006;-71
2022/12/26 00:24:29;;;;;;;69.70;50.63;;;;;;;;;;6307559;22;20421;-71
2022/12/26 00:26:55;;;;;;;72.65;53.45;;;;;;;;;;6307789;22;20381;-69
2022/12/26 00:29:21;;;;;;;69.57;52.72;;;;;;;;;;6307352;22;20074;-71
2022/12/26 00:31:48;;;;;;;63.97;48.85;;;;;;;;;;6307636;22;20470;-71
2022/12/26 00:34:15;;;;;;;67.72;51.20;;;;;;;;;;6307374;22;20444;-71
2022/12/26 00:36:41;;;;;;;66.50;49.00;;;;;;;;;;6307408;22;20376;-72
2022/12/26 00:39:07;;;;;;;69.05;50.00;;;;;;;;;;6307451;22;20003;-71
2022/12/26 00:41:33;;;;;;;59.60;46.50;;;;;;;;;;6307520;22;20320;-72
2022/12/26 00:43:59;;;;;;;70.03;51.63;;;;;;;;;;6279740;22;20010;-71
2022/12/26 00:46:26;;;;;;;62.40;48.50;;;;;;;;;;6307169;22;20026;-68
2022/12/26 00:48:52;;;;;;;60.95;48.60;;;;;;;;;;6306989;22;20004;-71
2022/12/26 00:51:19;;;;;;;72.82;51.40;;;;;;;;;;6307389;22;20006;-71
2022/12/26 00:53:46;;;;;;;69.18;49.42;;;;;;;;;;6307297;22;20428;-71
2022/12/26 00:56:12;;;;;;;64.22;48.55;;;;;;;;;;6307322;22;20429;-71
2022/12/26 00:58:40;;;;;;;63.80;47.22;;;;;;;;;;6307069;22;20010;-69
2022/12/26 01:01:08;;;;;;;66.05;50.55;;;;;;;;;;6307005;22;19999;-71
2022/12/26 01:03:34;;;;;;;64.00;47.38;;;;;;;;;;6307335;22;20003;-71
2022/12/26 01:06:01;;;;;;;68.93;49.13;;;;;;;;;;6307568;22;19999;-68
2022/12/26 01:08:27;;;;;;;66.50;44.47;;;;;;;;;;6307726;22;20321;-71
2022/12/26 01:10:54;;;;;;;63.72;45.08;;;;;;;;;;6307487;22;20003;-71
2022/12/26 01:19:30;;;;;;;51.38;37.30;;;;;;;;;;6249764;22;20091;-71
2022/12/26 01:22:29;;;;;;;51.75;38.92;;;;;;;;;;6307478;22;20003;-71
2022/12/26 01:34:14;;;;;;;58.45;43.75;;;;;;;;;;6243287;22;20027;-71
2022/12/26 01:36:43;;;;;;;56.67;43.25;;;;;;;;;;6243614;22;20004;-71
2022/12/26 01:39:15;;;;;;;61.92;45.28;;;;;;;;;;6243194;22;20327;-71
2022/12/26 01:41:42;;;;;;;58.08;45.45;;;;;;;;;;6243444;22;20433;-71
2022/12/26 01:44:27;;;;;;;56.13;42.88;;;;;;;;;;6275543;22;20004;-71
2022/12/26 01:46:53;;;;;;;61.78;44.42;;;;;;;;;;6307256;22;20372;-71
2022/12/26 01:49:25;;;;;;;56.38;44.22;;;;;;;;;;6307340;22;20006;-71
2022/12/26 01:51:55;;;;;;;59.30;44.03;;;;;;;;;;6308955;22;20372;-68
2022/12/26 01:54:21;;;;;;;60.67;44.47;;;;;;;;;;6309039;22;20433;-71
2022/12/26 01:56:48;;;;;;;57.80;44.95;;;;;;;;;;6308983;22;20003;-71
2022/12/26 01:59:18;;;;;;;60.15;45.47;;;;;;;;;;6305590;22;20361;-71
2022/12/26 02:01:46;;;;;;;63.15;47.13;;;;;;;;;;6305666;22;20000;-71
2022/12/26 02:07:00;;;;;;;62.92;46.60;;;;;;;;;;6308438;22;20061;-71
2022/12/26 02:09:26;;;;;;;61.88;46.30;;;;;;;;;;6308668;22;20414;-71
2022/12/26 02:12:00;;;;;;;63.63;45.47;;;;;;;;;;6308672;22;20456;-71
2022/12/26 02:14:26;;;;;;;57.30;44.83;;;;;;;;;;6308771;22;20015;-71
2022/12/26 02:16:53;;;;;;;59.33;45.00;;;;;;;;;;6308699;22;20034;-71
2022/12/26 02:19:25;;;;;;;67.22;46.30;;;;;;;;;;6308606;22;20484;-71
2022/12/26 02:21:51;;;;;;;;;;;;;;;;;;6308924;22;20477;-71
2022/12/26 02:24:23;;;;;;;62.03;46.40;;;;;;;;;;6308913;22;19926;-73
2022/12/26 02:26:49;;;;;;;63.75;45.42;;;;;;;;;;6308788;22;20428;-73
2022/12/26 02:29:21;;;;;;;60.50;45.50;;;;;;;;;;6308140;22;20004;-72
2022/12/26 02:32:06;;;;;;;59.60;44.50;;;;;;;;;;6308449;22;20030;-73
2022/12/26 02:34:51;;;;;;;59.67;45.20;;;;;;;;;;6308519;22;20464;-74
2022/12/26 02:37:17;;;;;;;64.80;46.92;;;;;;;;;;6308537;22;19999;-73
2022/12/26 02:40:01;;;;;;;60.00;44.88;;;;;;;;;;6308549;22;19999;-73
2022/12/26 02:42:36;;;;;;;59.10;44.47;;;;;;;;;;6308238;22;19999;-73
2022/12/26 02:48:06;;;;;;;61.35;45.38;;;;;;;;;;6309549;22;20018;-70
2022/12/26 03:15:17;;;;;;;;;;;;;;;;;;;;;
2022/12/26 03:21:28;;;;;;;56.70;43.47;;;;;;;;;;6203977;22;20015;-71
2022/12/26 03:24:24;;;;;;;60.00;44.40;;;;;;;;;;6246112;23;20007;-71
2022/12/26 03:26:46;;;;;;;62.37;44.43;;;;;;;;;;6242039;23;20058;-71
2022/12/26 03:32:00;;;;;;;60.30;44.90;;;;;;;;;;6246523;23;20461;-71
2022/12/26 03:34:27;;;;;;;56.50;45.47;;;;;;;;;;6246496;23;20019;-71
2022/12/26 03:36:56;;;;;;;57.20;44.15;;;;;;;;;;6246366;23;20004;-72
2022/12/26 04:19:53;;;;;;;63.87;48.10;;;;;;;;;;6307404;22;20057;-71
2022/12/26 04:44:57;;;;;;;66.68;51.25;;;;;;;;;;6308192;22;20332;-71
2022/12/26 04:50:46;;;;;;;65.45;48.97;;;;;;;;;;6243845;22;20011;-70
2022/12/26 04:53:25;;;;;;;64.25;48.13;;;;;;;;;;6243810;22;20008;-71
2022/12/26 04:56:24;;;;;;;67.03;51.00;;;;;;;;;;6243781;22;20019;-71
2022/12/26 05:11:46;;;;;;;64.10;47.93;;;9.90;99.90;;;;;;6179470;23;20031;-70
2022/12/26 05:14:12;;;;;;;65.53;47.38;;;9.90;99.90;;;;;;6213440;22;20022;-70
2022/12/26 05:30:25;;;;;;;60.80;48.72;;;9.90;99.90;;;;;;6247568;23;20061;-71
2022/12/26 05:35:37;;;;;;;66.38;49.17;;;9.90;99.90;;;;;;6247444;23;20158;-71
2022/12/26 05:38:03;;;;;;;67.03;48.17;;;9.90;99.90;;;;;;6247506;22;20000;-71
2022/12/26 05:40:29;;;;;;;66.38;49.35;;;9.90;99.90;;;;;;6247598;22;20004;-71
2022/12/26 05:42:54;;;;;;;63.72;48.28;;;9.90;99.90;;;;;;6247460;22;19996;-71
2022/12/26 05:45:20;;;;;;;66.10;49.20;;;9.90;99.90;;;;;;6247446;22;20011;-71
2022/12/26 05:47:46;;;;;;;62.83;47.83;;;9.90;99.90;;;;;;6247797;22;20069;-71
2022/12/26 05:50:12;;;;;;;66.70;48.97;;;9.90;99.90;;;;;;6247717;22;20015;-69
2022/12/26 05:52:37;;;;;;;64.37;48.07;;;9.90;99.90;;;;;;6247559;22;20000;-71
2022/12/26 05:55:04;;;;;;;61.55;47.75;;;9.90;99.90;;;;;;6247153;22;20039;-72
2022/12/26 05:57:29;;;;;;;62.40;46.70;;;9.90;99.90;;;;;;6245887;23;20326;-72
2022/12/26 05:59:55;;;;;;;59.15;46.55;;;9.90;99.90;;;;;;6247242;22;20004;-73
2022/12/26 06:02:21;;;;;;;61.80;46.97;;;9.90;99.90;;;;;;6247835;22;20031;-73
2022/12/26 06:04:47;;;;;;;64.00;45.63;;;9.90;99.90;;;;;;6247276;22;20004;-73
2022/12/26 06:07:13;;;;;;;59.53;45.03;;;9.90;99.90;;;;;;6247005;22;20006;-73
2022/12/26 06:09:38;;;;;;;59.50;46.20;;;9.90;99.90;;;;;;6246934;22;20000;-73
2022/12/26 06:12:07;;;;;;;59.85;46.67;;;9.90;99.90;;;;;;6273695;22;20021;-73
2022/12/26 06:14:33;;;;;;;62.63;46.03;;;9.90;99.90;;;;;;6308609;22;20035;-73
2022/12/26 06:16:59;;;;;;;63.95;48.63;;;9.90;99.90;;;;;;6309162;22;20006;-71
2022/12/26 06:19:24;;;;;;;62.65;47.67;;;9.90;99.90;;;;;;6309378;22;20070;-70
2022/12/26 06:21:50;;;;;;;59.85;46.05;;;9.90;99.90;;;;;;6309602;22;20052;-71
2022/12/26 06:24:16;;;;;;;64.15;47.55;;;9.90;99.90;;;;;;6309447;22;20428;-70
2022/12/26 06:26:42;;;;;;;56.83;44.38;;;9.90;99.90;;;;;;6309399;22;20003;-71
2022/12/26 06:29:09;;;;;;;59.27;45.17;;;9.90;99.90;;;;;;6309553;22;20371;-71
2022/12/26 06:31:40;;;;;;;59.77;44.13;;;9.90;99.90;;;;;;6309240;22;20381;-71
2022/12/26 06:34:06;;;;;;;64.95;46.38;;;9.80;99.90;;;;;;6309116;22;20007;-68
2022/12/26 06:36:51;;;;;;;62.05;47.28;;;9.80;99.90;;;;;;6309027;22;19996;-71
2022/12/26 06:39:23;;;;;;;61.55;43.80;;;;;;;;;;6309356;22;20031;-71
2022/12/26 06:42:09;;;;;;;;;;;;;;;;;;;;;
2022/12/26 06:44:35;;;;;;;57.70;44.20;;;;;;;;;;6308830;22;20090;-71
2022/12/26 06:47:02;;;;;;;61.67;44.67;;;;;;;;;;6309050;22;19999;-71
2022/12/26 06:49:31;;;;;;;57.60;44.67;;;;;;;;;;6308838;22;20006;-71
2022/12/26 06:51:57;;;;;;;59.75;43.78;;;;;;;;;;6308243;22;20033;-71
2022/12/26 06:54:41;;;;;;;59.17;44.77;;;;;;;;;;6307175;22;20015;-71
2022/12/26 06:57:28;;;;;;;55.83;44.57;;;;;;;;;;6308778;22;20084;-71
2022/12/26 07:00:00;;;;;;;60.87;46.17;;;;;;;;;;6308475;22;20000;-71
2022/12/26 07:02:29;;;;;;;58.60;46.13;;;;;;;;;;6306298;22;20341;-71
2022/12/26 07:04:55;;;;;;;60.57;45.90;;;;;;;;;;6308494;22;20364;-71
2022/12/26 07:07:21;;;;;;;58.65;45.30;;;;;;;;;;6308442;22;20328;-71
2022/12/26 07:09:48;;;;;;;61.53;47.50;;;;;;;;;;6308532;22;20329;-71
2022/12/26 07:12:14;;;;;;;62.90;46.63;;;;;;;;;;6308056;22;20379;-71
2022/12/26 07:14:40;;;;;;;62.17;45.90;;;;;;;;;;6308332;22;20011;-70
2022/12/26 07:17:06;;;;;;;65.35;47.13;;;;;;;;;;6308331;22;20321;-71
2022/12/26 07:19:32;;;;;;;63.13;46.63;;;;;;;;;;6308083;22;19999;-70
2022/12/26 07:21:58;;;;;;;63.63;45.00;;;;;;;;;;6308048;22;19995;-68
2022/12/26 07:24:24;;;;;;;60.67;47.43;;;;;;;;;;6308095;22;19999;-71
2022/12/26 07:26:51;;;;;;;61.65;45.65;;;;;;;;;;6308025;22;20082;-68
2022/12/26 07:29:17;;;;;;;59.20;46.07;;;;;;;;;;6307880;22;20011;-70
2022/12/26 07:31:43;;;;;;;59.20;45.77;;;;;;;;;;6307584;22;19999;-71
2022/12/26 07:34:09;;;;;;;59.67;44.05;;;;;;;;;;6308060;22;20129;-71
2022/12/26 07:36:35;;;;;;;56.33;42.53;;;;;;;;;;6307956;22;20004;-71
2022/12/26 07:39:02;;;;;;;58.13;45.25;;;;;;;;;;6307513;22;20372;-71
2022/12/26 07:44:13;;;;;;;59.90;45.60;;;;;;;;;;6307897;22;20084;-71
2022/12/26 07:46:40;;;;;;;58.57;44.10;;;;;;;;;;6307818;22;20064;-71
2022/12/26 07:49:06;;;;;;;57.80;44.60;;;;;;;;;;6307368;22;20417;-70
2022/12/26 07:51:32;;;;;;;58.37;44.03;;;;;;;;;;6307616;22;20007;-71
2022/12/26 07:53:58;;;;;;;55.70;42.63;;;;;;;;;;6280214;22;20018;-70
2022/12/26 07:56:24;;;;;;;57.83;43.70;;;;;;;;;;6307920;22;19999;-70
2022/12/26 07:58:51;;;;;;;57.53;44.25;;;;;;;;;;6307667;22;20038;-71
2022/12/26 08:01:17;;;;;;;55.20;43.53;;;;;;;;;;6307459;22;20056;-70
2022/12/26 08:03:44;;;;;;;59.07;42.43;;;;;;;;;;6307508;22;20021;-70
2022/12/26 08:06:10;;;;;;;59.90;42.13;;;;;;;;;;6307334;22;20026;-70
2022/12/26 08:08:37;;;;;;;57.17;44.17;;;;;;;;;;6307550;22;20026;-71
2022/12/26 08:11:07;;;;;;;59.93;44.93;;;;;;;;;;6307884;22;19999;-71
2022/12/26 08:13:33;;;;;;;56.05;43.55;;;;;;;;;;6308127;22;20008;-71
2022/12/26 08:16:03;;;;;;;58.50;43.15;;;;;;;;;;6308237;22;20041;-71
2022/12/26 08:18:32;;;;;;;60.93;45.13;;;;;;;;;;6308175;22;20003;-71
2022/12/26 08:24:32;;;;;;;56.95;42.55;;;;;;;;;;6279652;22;20456;-71
2022/12/26 08:27:01;;;;;;;61.03;43.87;;;;;;;;;;6308224;22;20078;-71
2022/12/26 08:29:40;;;;;;;58.10;43.73;;;;;;;;;;6307858;22;20027;-71
2022/12/26 08:35:29;;;;;;;51.65;40.05;;;;;;;;;;6180996;23;20025;-71
2022/12/26 08:38:07;;;;;;;54.58;41.67;;;;;;;;;;6064579;23;20014;-71
2022/12/26 08:40:36;;;;;;;52.97;40.67;;;;;;;;;;6269881;22;20010;-71
2022/12/26 08:43:06;;;;;;;56.65;41.50;;;;;;;;;;6306781;22;20082;-71
2022/12/26 08:45:55;;;;;;;56.83;41.72;;;;;;;;;;6306356;22;20007;-71
2022/12/26 08:48:25;;;;;;;57.80;41.50;;;;;;;;;;6296598;22;20007;-71
2022/12/26 08:51:01;;;;;;;54.67;39.25;;;;;;;;;;6306808;22;19999;-71
2022/12/26 08:53:28;;;;;;;48.92;40.05;;;;;;;;;;6306869;22;20094;-71
2022/12/26 08:55:55;;;;;;;58.03;38.88;;;;;;;;;;6306561;22;20031;-71
2022/12/26 08:58:21;;;;;;;57.40;40.53;;;;;;;;;;6306509;22;19999;-71
2022/12/26 09:00:48;;;;;;;57.65;40.75;;;;;;;;;;6306621;22;20372;-71
2022/12/26 09:03:14;;;;;;;65.75;48.67;;;;;;;;;;6306376;22;19999;-71
2022/12/26 09:05:41;;;;;;;73.55;53.30;;;;;;;;;;6306750;22;20038;-71
2022/12/26 09:08:07;;;;;;;68.05;49.25;;;;;;;;;;6305995;22;20002;-71
2022/12/26 09:10:33;;;;;;;56.35;41.83;;;;;;;;;;6306066;22;20368;-72
2022/12/26 09:12:59;;;;;;;58.10;43.05;;;;;;;;;;6305935;22;20544;-71
2022/12/26 09:15:25;;;;;;;57.08;44.40;;;;;;;;;;6306171;22;20437;-71
2022/12/26 09:17:51;;;;;;;58.80;43.60;;;;;;;;;;6306110;22;20010;-69
2022/12/26 09:20:17;;;;;;;59.88;45.67;;;;;;;;;;6306387;22;20307;-69
2022/12/26 09:22:49;;;;;;;59.30;44.42;;;;;;;;;;6306321;22;20068;-69
2022/12/26 09:25:16;;;;;;;59.78;45.03;;;;;;;;;;6306479;22;20437;-69
2022/12/26 09:27:42;;;;;;;63.35;46.67;;;;;;;;;;6305411;22;19999;-69
2022/12/26 09:30:08;;;;;;;56.97;44.65;;;;;;;;;;6305037;22;20033;-71
2022/12/26 09:32:35;;;;;;;63.22;44.60;;;;;;;;;;6305203;22;20003;-72
2022/12/26 09:35:02;;;;;;;58.03;45.17;;;;;;;;;;6305971;22;20441;-71
2022/12/26 09:37:28;;;;;;;60.90;45.97;;;;;;;;;;6306328;22;19996;-72
2022/12/26 09:39:54;;;;;;;62.30;45.63;;;;;;;;;;6306244;22;20007;-71
2022/12/26 09:42:31;;;;;;;62.42;45.85;;;;;;;;;;6306709;22;20406;-71
2022/12/26 09:45:01;;;;;;;62.65;45.80;;;;;;;;;;6306585;22;20034;-73
2022/12/26 09:47:31;;;;;;;60.25;46.10;;;;;;;;;;6306410;22;20003;-71
2022/12/26 09:50:04;;;;;;;58.40;41.47;;;;;;;;;;6305986;22;20007;-68
2022/12/26 09:52:39;;;;;;;55.40;42.72;;;;;;;;;;6306098;22;20067;-69
2022/12/26 09:55:17;;;;;;;59.30;44.63;;;;;;;;;;6304920;22;20344;-69
2022/12/26 09:57:45;;;;;;;60.70;44.38;;;;;;;;;;6306023;22;19995;-69
2022/12/26 10:00:24;;;;;;;62.72;45.95;;;;;;;;;;6306979;22;19999;-69
2022/12/26 10:02:57;;;;;;;61.95;44.92;;;;;;;;;;6307045;22;20045;-69
2022/12/26 10:11:55;;;;;;;69.22;47.50;;;;;;;;;;6066061;23;20023;-69
2022/12/26 10:14:40;;;;;;;64.40;47.03;;;;;;;;;;6118500;23;20056;-69
2022/12/26 10:23:29;;;;;;;61.40;46.55;;;;;;;;;;6309362;22;20375;-71
2022/12/26 10:25:55;;;;;;;63.60;46.30;;;;;;;;;;6308479;22;20004;-71
2022/12/26 10:31:40;;;;;;;69.20;48.75;;;;;;;;;;6183394;23;20009;-71
2022/12/26 10:34:22;;;;;;;64.47;48.58;;;;;;;;;;6297988;22;20046;-69
2022/12/26 10:36:50;;;;;;;60.60;45.60;;;;;;;;;;6281287;22;20337;-69
2022/12/26 10:39:24;;;;;;;66.32;46.75;;;;;;;;;;6308288;22;20337;-69
2022/12/26 10:41:52;;;;;;;58.85;46.78;;;;;;;;;;6308807;22;19995;-69
2022/12/26 10:44:19;;;;;;;64.30;49.08;;;;;;;;;;6308593;22;20027;-69
2022/12/26 10:46:56;;;;;;;63.35;46.58;;;;;;;;;;6308756;22;20002;-69
2022/12/26 10:49:23;;;;;;;64.57;47.85;;;;;;;;;;6308770;22;20419;-69
2022/12/26 10:51:50;;;;;;;61.88;47.78;;;;;;;;;;6308662;22;20026;-69
2022/12/26 10:54:18;;;;;;;63.33;47.88;;;;;;;;;;6308369;22;20011;-69
2022/12/26 10:56:46;;;;;;;59.75;45.22;;;;;;;;;;6308226;22;20003;-69
2022/12/26 10:59:15;;;;;;;61.83;46.00;;;;;;;;;;6308620;22;20003;-69
2022/12/26 11:01:46;;;;;;;63.42;46.20;;;;;;;;;;6308484;22;20003;-69
2022/12/26 11:04:22;;;;;;;66.68;48.45;;;;;;;;;;6308736;22;19999;-69
2022/12/26 11:06:51;;;;;;;62.17;46.20;;;;;;;;;;6308302;22;20325;-70
2022/12/26 11:09:26;;;;;;;67.03;47.53;;;;;;;;;;6307958;22;20326;-69
2022/12/26 11:11:53;;;;;;;63.95;45.05;;;;;;;;;;6308136;22;20459;-69
2022/12/26 11:14:25;;;;;;;63.55;46.47;;;;;;;;;;6308173;22;20042;-69
2022/12/26 11:16:52;;;;;;;63.08;46.25;;;;;;;;;;6308626;22;20002;-69
2022/12/26 11:19:32;;;;;;;58.85;43.95;;;;;;;;;;6307851;22;20003;-69
2022/12/26 11:22:16;;;;;;;58.28;44.47;;;;;;;;;;6308619;22;19999;-69
2022/12/26 11:24:42;;;;;;;62.47;45.95;;;;;;;;;;6308569;22;20011;-69
2022/12/26 11:27:16;;;;;;;61.50;45.45;;;;;;;;;;6308056;22;20421;-69
2022/12/26 11:29:42;;;;;;;65.72;47.42;;;;;;;;;;6307915;22;20333;-69
2022/12/26 11:32:15;;;;;;;65.15;48.90;;;;;;;;;;6307428;22;20006;-69
2022/12/26 11:34:45;;;;;;;59.75;46.67;;;;;;;;;;6307553;22;20011;-69
2022/12/26 11:37:41;;;;;;;63.67;48.15;;;;;;;;;;6307130;22;20005;-69
2022/12/26 11:40:15;;;;;;;60.05;45.97;;;;;;;;;;6293528;22;20113;-69
2022/12/26 11:42:42;;;;;;;65.88;48.33;;;;;;;;;;6280913;22;20322;-70
2022/12/26 11:45:10;;;;;;;67.70;48.17;;;;;;;;;;6308416;22;20375;-69
2022/12/26 11:47:37;;;;;;;63.30;47.35;;;;;;;;;;6308346;22;20072;-69
2022/12/26 11:50:21;;;;;;;;;;;;;;;;;;;;;
2022/12/26 11:53:14;;;;;;;67.00;49.28;;;;;;;;;;6307546;22;20117;-69
2022/12/26 12:02:25;;;;;;;;;;;;;;;;;;;;;
2022/12/26 12:14:49;;;;;;;82.05;54.83;;;;;;;;;;6152595;23;20088;-68
2022/12/26 12:17:39;;;;;;;74.43;52.97;;;;;;;;;;6153534;23;20010;-69
2022/12/26 12:20:26;;;;;;;71.35;53.13;;;;;;;;;;6153388;23;20072;-67
2022/12/26 12:22:52;;;;;;;72.82;53.28;;;;;;;;;;6246220;22;20368;-68
2022/12/26 12:25:30;;;;;;;68.32;54.00;;;;;;;;;;6276642;22;20049;-67
2022/12/26 12:28:03;;;;;;;76.93;55.70;;;;;;;;;;6276649;22;19999;-68
2022/12/26 12:30:44;;;;;;;74.35;52.90;;;;;;;;;;6276420;22;20011;-67
2022/12/26 12:33:29;;;;;;;72.75;53.50;;;;;;;;;;6274966;22;20004;-67
2022/12/26 12:36:01;;;;;;;72.03;53.40;;;;;;;;;;6276354;22;20003;-67
2022/12/26 12:38:29;;;;;;;71.35;54.63;;;;;;;;;;6276449;22;20004;-67
2022/12/26 12:40:55;;;;;;;72.05;53.17;;;;;;;;;;6276445;22;20507;-67
2022/12/26 12:43:27;;;;;;;67.13;51.85;;;;;;;;;;6276370;22;20325;-67
2022/12/26 12:45:58;;;;;;;67.80;50.47;;;;;;;;;;6276220;22;20418;-69
2022/12/26 12:48:24;;;;;;;75.68;54.42;;;;;;;;;;6276571;22;20426;-69
2022/12/26 12:51:09;;;;;;;68.95;52.03;;;;;;;;;;6276353;22;20430;-69
2022/12/26 12:53:54;;;;;;;73.93;56.50;;;;;;;;;;6276179;22;20445;-69
2022/12/26 12:56:32;;;;;;;74.32;56.17;;;;;;;;;;6276296;22;20002;-69
2022/12/26 12:59:07;;;;;;;73.55;53.35;;;;;;;;;;6276187;22;20004;-68
2022/12/26 13:01:36;;;;;;;68.70;52.25;;;;;;;;;;6276340;22;20330;-71
2022/12/26 13:04:02;;;;;;;72.55;51.38;;;;;;;;;;6275619;22;20430;-69
2022/12/26 13:06:31;;;;;;;67.15;50.97;;;;;;;;;;6275832;22;20049;-69
2022/12/26 13:09:03;;;;;;;71.20;52.55;;;;;;;;;;6276054;22;20019;-70
2022/12/26 13:11:35;;;;;;;72.40;52.42;;;;;;;;;;6275888;22;20008;-70
2022/12/26 13:14:06;;;;;;;70.60;53.78;;;;;;;;;;6298367;22;20095;-70
2022/12/26 13:16:42;;;;;;;76.72;55.30;;;;;;;;;;6307515;22;19999;-69
2022/12/26 13:19:11;;;;;;;74.68;54.47;;;;;;;;;;6280482;22;20011;-69
2022/12/26 13:21:39;;;;;;;68.32;52.25;;;;;;;;;;6279938;22;19999;-69
2022/12/26 13:24:22;;;;;;;74.68;56.65;;;;;;;;;;6307634;22;19995;-69
2022/12/26 13:27:21;;;;;;;71.50;53.58;;;;;;;;;;6307532;22;20515;-69
2022/12/26 13:30:14;;;;;;;81.82;54.70;;;;;;;;;;6211697;23;20009;-69
2022/12/26 13:32:49;;;;;;;75.43;56.70;;;;;;;;;;6242995;22;20007;-69
2022/12/26 13:44:44;;;;;;;81.70;56.33;;;;;;;;;;6122819;23;20017;-69
2022/12/26 13:50:34;;;;;;;78.82;58.58;;;;;;;;;;6245394;22;20014;-69
2022/12/26 13:53:00;;;;;;;81.55;60.75;;;;;;;;;;6308705;22;20321;-69
2022/12/26 13:55:32;;;;;;;80.18;58.22;;;;;;;;;;6281878;22;20379;-69
2022/12/26 13:58:14;;;;;;;75.28;56.33;;;;;;;;;;6281522;22;20333;-69
2022/12/26 14:00:43;;;;;;;77.18;57.00;;;;;;;;;;6308693;22;20378;-69
2022/12/26 14:03:32;;;;;;;78.40;57.35;;;;;;;;;;6308382;22;20386;-69
2022/12/26 14:06:21;;;;;;;76.53;55.97;;;;;;;;;;6295983;22;20360;-69
2022/12/26 14:09:06;;;;;;;73.18;55.03;;;;;;;;;;6308888;22;20286;-69
2022/12/26 14:12:07;;;;;;;76.28;55.10;;;;;;;;;;6308680;22;20003;-69
2022/12/26 14:14:36;;;;;;;72.10;54.25;;;;;;;;;;6213561;23;20087;-69
2022/12/26 14:17:12;;;;;;;69.28;52.40;;;;;;;;;;6290994;22;20010;-69
2022/12/26 14:19:41;;;;;;;73.80;53.65;;;;;;;;;;6308464;22;20355;-69
2022/12/26 14:22:17;;;;;;;71.55;53.00;;;;;;;;;;6308342;22;19995;-68
2022/12/26 14:24:43;;;;;;;73.07;52.92;;;;;;;;;;6308649;22;20057;-69
2022/12/26 14:27:47;;;;;;;72.45;54.63;;;;;;;;;;6308344;22;20429;-69
2022/12/26 14:30:22;;;;;;;69.25;53.42;;;;;;;;;;6214005;23;20012;-69
2022/12/26 14:33:11;;;;;;;72.03;52.10;;;;;;;;;;6214093;23;20373;-69
2022/12/26 14:35:42;;;;;;;75.95;54.90;;;;;;;;;;6252423;22;20015;-69
2022/12/26 14:38:32;;;;;;;71.03;53.38;;;;;;;;;;6308503;22;20067;-69
2022/12/26 14:41:07;;;;;;;77.13;53.97;;;;;;;;;;6308362;22;20003;-69
2022/12/26 14:43:40;;;;;;;71.53;53.05;;;;;;;;;;6308219;22;20334;-69
2022/12/26 14:46:29;;;;;;;77.10;53.13;;;;;;;;;;6308440;22;20010;-69
2022/12/26 14:48:58;;;;;;;74.45;54.95;;;;;;;;;;6238678;22;20011;-69
2022/12/26 14:51:30;;;;;;;68.47;51.85;;;;;;;;;;6308617;22;20317;-69
2022/12/26 14:57:29;;;;;;;66.97;50.42;;;;;;;;;;6247267;22;20100;-69
2022/12/26 15:03:32;;;;;;;67.97;50.65;;;;;;;;;;6276930;22;20056;-69
2022/12/26 15:06:26;;;;;;;68.00;51.03;;;;;;;;;;6209468;23;20339;-69
2022/12/26 15:09:10;;;;;;;69.47;51.58;;;;;;;;;;6213303;23;20009;-69
2022/12/26 15:14:40;;;;;;;;;;;;;;;;;;6303527;22;20034;-69
2022/12/26 15:17:13;;;;;;;71.00;50.20;;;;;;;;;;6304273;22;19903;-69
2022/12/26 15:19:55;;;;;;;69.07;53.78;;;;;;;;;;6304677;22;20318;-70
2022/12/26 15:22:41;;;;;;;70.30;52.97;;;;;;;;;;6307781;22;20006;-70
2022/12/26 15:25:07;;;;;;;71.00;53.10;;;;;;;;;;6307657;22;19999;-69
2022/12/26 15:27:33;;;;;;;72.80;55.17;;;;;;;;;;6307852;22;20318;-69
2022/12/26 15:30:13;;;;;;;73.13;55.78;;;;;;;;;;6307242;22;20326;-69
2022/12/26 15:32:58;;;;;;;68.47;51.63;;;;;;;;;;6307368;22;20325;-70
2022/12/26 15:35:24;;;;;;;74.18;53.45;;;;;;;;;;6306155;22;20564;-70
2022/12/26 15:37:59;;;;;;;86.15;62.40;;;;;;;;;;6306285;22;20417;-70
2022/12/26 15:40:31;;;;;;;84.97;60.30;;;;;;;;;;6306874;22;20007;-70
2022/12/26 15:43:00;;;;;;;89.70;60.13;;;;;;;;;;6307194;22;20009;-71
2022/12/26 15:45:44;;;;;;;81.93;60.17;;;;;;;;;;6306697;22;20502;-69
2022/12/26 15:48:23;;;;;;;85.43;60.22;;;;;;;;;;6279791;22;20401;-69
2022/12/26 15:50:54;;;;;;;86.00;61.67;;;;;;;;;;6307193;22;20003;-69
2022/12/26 15:53:29;;;;;;;86.27;61.70;;;;;;;;;;6307237;22;20027;-70
2022/12/26 15:56:10;;;;;;;81.20;59.97;;;;;;;;;;6280341;22;20460;-69
2022/12/26 15:58:37;;;;;;;79.20;58.60;;;;;;;;;;6307238;22;19999;-69
2022/12/26 16:01:03;;;;;;;76.15;55.78;;;;;;;;;;6307053;22;19999;-69
2022/12/26 16:03:44;;;;;;;81.70;57.28;;;;;;;;;;6307441;22;19999;-69
2022/12/26 16:06:11;;;;;;;77.65;59.03;;;;;;;;;;6307806;22;20004;-70
2022/12/26 16:08:37;;;;;;;79.38;58.03;;;;;;;;;;6280141;22;20007;-71
2022/12/26 16:11:23;;;;;;;75.50;57.30;;;;;;;;;;6307893;22;19999;-69
2022/12/26 16:14:10;;;;;;;78.78;57.47;;;;;;;;;;6307538;22;20368;-71
2022/12/26 16:26:33;;;;;;;72.82;53.45;;;;;;;;;;6092716;23;20528;-70
2022/12/26 16:32:05;;;;;;;78.38;56.55;;;;;;;;;;6063827;23;20011;-69
2022/12/26 16:34:56;;;;;;;82.88;57.53;;;;;;;;;;6064278;23;20071;-70
2022/12/26 16:37:27;;;;;;;76.10;56.35;;;;;;;;;;6099190;23;20029;-69
2022/12/26 16:40:07;;;;;;;76.55;55.55;;;;;;;;;;6306720;22;20534;-70
2022/12/26 16:42:34;;;;;;;76.50;56.10;;;;;;;;;;6306900;22;20369;-70
2022/12/26 16:45:00;;;;;;;78.28;59.38;;;;;;;;;;6307085;22;20326;-69
2022/12/26 16:47:28;;;;;;;77.30;58.97;;;;;;;;;;6307192;22;20359;-69
2022/12/26 16:49:54;;;;;;;75.85;57.45;;;;;;;;;;6307004;22;20341;-70
2022/12/26 16:52:31;;;;;;;78.60;57.75;;;;;;;;;;6307100;22;19995;-70
2022/12/26 16:54:57;;;;;;;71.40;55.30;;;;;;;;;;6306864;22;20011;-70
2022/12/26 16:57:23;;;;;;;82.00;59.70;;;;;;;;;;6307269;22;19999;-70
2022/12/26 16:59:54;;;;;;;91.25;66.32;;;;;;;;;;6303425;22;20437;-69
2022/12/26 17:02:33;;;;;;;89.30;66.25;;;;;;;;;;6303871;22;20456;-70
2022/12/26 17:05:02;;;;;;;81.38;60.15;;;;;;;;;;6307347;22;20422;-69
2022/12/26 17:07:28;;;;;;;83.78;59.58;;;;;;;;;;6307068;22;20026;-69
2022/12/26 17:09:57;;;;;;;80.32;58.90;;;;;;;;;;6307191;22;19999;-69
2022/12/26 17:12:25;;;;;;;83.72;62.05;;;;;;;;;;6306924;22;20025;-69
2022/12/26 17:14:52;;;;;;;81.47;61.55;;;;;;;;;;6306914;22;20012;-69
2022/12/26 17:17:22;;;;;;;83.43;62.65;;;;;;;;;;6307320;22;19999;-70
2022/12/26 17:19:48;;;;;;;80.18;61.00;;;;;;;;;;6307250;22;20010;-68
2022/12/26 17:22:16;;;;;;;78.15;59.80;;;;;;;;;;6309015;22;20053;-69
2022/12/26 17:24:43;;;;;;;82.45;63.38;;;;;;;;;;6305302;22;20446;-69
2022/12/26 17:27:17;;;;;;;85.53;62.35;;;;;;;;;;6305683;22;20052;-69
2022/12/26 17:29:51;;;;;;;83.47;64.32;;;;;;;;;;6307059;22;19999;-70
2022/12/26 17:32:46;;;;;;;87.38;65.32;;;;;;;;;;6308649;22;20003;-69
2022/12/26 17:35:16;;;;;;;88.55;63.90;;;;;;;;;;6289665;22;20015;-69
2022/12/26 17:37:42;;;;;;;86.18;64.88;;;;;;;;;;6309612;22;19995;-69
2022/12/26 17:52:55;;;;;;;83.55;62.47;;;;;;;;;;6095747;23;20016;-69
2022/12/26 17:55:46;;;;;;;83.30;62.15;;;;;;;;;;6096141;23;20089;-70
2022/12/26 18:01:02;;;;;;;80.82;58.28;;;;;;;;;;6153620;23;20016;-69
2022/12/26 18:03:28;;;;;;;75.97;57.67;;;;;;;;;;6195910;23;20355;-69
2022/12/26 18:05:55;;;;;;;78.22;60.30;;;;;;;;;;6235305;22;20341;-69
2022/12/26 18:08:30;;;;;;;81.32;61.22;;;;;;;;;;6308276;22;20658;-69
2022/12/26 18:10:57;;;;;;;77.30;59.85;;;;;;;;;;6308666;22;20325;-69
2022/12/26 18:13:23;;;;;;;80.57;60.20;;;;;;;;;;6308237;22;20057;-69
2022/12/26 18:15:50;;;;;;;82.40;61.85;;;;;;;;;;6307874;22;20021;-69
2022/12/26 18:18:19;;;;;;;82.60;59.28;;;;;;;;;;6308619;22;19999;-69
2022/12/26 18:20:45;;;;;;;78.85;59.40;;;;;;;;;;6308346;22;19999;-69
2022/12/26 18:23:11;;;;;;;79.50;59.75;;;;;;;;;;6308350;22;20402;-69
2022/12/26 18:25:37;;;;;;;75.45;56.65;;;;;;;;;;6308372;22;19999;-70
2022/12/26 18:28:04;;;;;;;79.80;57.35;;;;;;;;;;6308374;22;20495;-69
2022/12/26 18:30:30;;;;;;;75.70;59.22;;;;;;;;;;6308009;22;20334;-70
2022/12/26 18:32:56;;;;;;;77.47;60.20;;;;;;;;;;6307780;22;20451;-69
2022/12/26 18:35:22;;;;;;;80.57;60.30;;;;;;;;;;6308650;22;20015;-69
2022/12/26 18:37:50;;;;;;;80.53;60.60;;;;;;;;;;6308609;22;20007;-69
2022/12/26 18:40:42;;;;;;;81.68;61.30;;;;;;;;;;6308591;22;20007;-69
2022/12/26 18:43:09;;;;;;;79.93;61.97;;;;;;;;;;6304191;22;20037;-68
2022/12/26 18:45:36;;;;;;;83.80;61.95;;;;;;;;;;6307955;22;20026;-69
2022/12/26 18:48:03;;;;;;;78.50;60.20;;;;;;;;;;6308198;22;19995;-69